Time;durP1;ratioP1;P1;durP2;ratioP2;P2;SDS_P1;SDS_P2;PMS_P1;PMS_P2;Temp;Humidity;BMP_temperature;BMP_pressure;BME280_temperature;BME280_humidity;BME280_pressure;Samples;Min_cycle;Max_cycle;Signal;HPM_P1;HPM_P2
2022/11/21 00:00:18;;;;;;;2.38;0.90;;;13.50;80.60;;;;;;21010734;28;20049;-59
2022/11/21 00:10:19;;;;;;;2.17;0.98;;;13.50;80.60;;;;;;21010572;28;20040;-59
2022/11/21 00:20:22;;;;;;;1.30;0.95;;;13.60;80.60;;;;;;21010201;28;20406;-59
2022/11/21 00:30:24;;;;;;;1.90;0.90;;;13.50;81.20;;;;;;21008769;28;20045;-59
2022/11/21 00:40:26;;;;;;;1.52;1.00;;;13.50;81.60;;;;;;20990483;28;20048;-60
2022/11/21 00:50:28;;;;;;;1.90;1.30;;;13.60;81.40;;;;;;21007487;28;20052;-60
2022/11/21 01:00:30;;;;;;;2.30;1.42;;;13.50;81.60;;;;;;21006268;28;20048;-60
2022/11/21 01:10:34;;;;;;;2.65;1.73;;;13.50;81.70;;;;;;21006495;28;20488;-61
2022/11/21 01:20:39;;;;;;;2.83;1.63;;;13.40;82.50;;;;;;21005040;28;20136;-60
2022/11/21 01:30:41;;;;;;;3.05;1.60;;;13.50;82.10;;;;;;21004180;28;20056;-60
2022/11/21 01:40:42;;;;;;;3.67;1.75;;;13.50;82.60;;;;;;21003804;28;20456;-60
2022/11/21 01:50:45;;;;;;;2.70;1.17;;;13.50;82.60;;;;;;20986258;28;20473;-58
2022/11/21 02:00:47;;;;;;;1.65;1.10;;;13.60;82.20;;;;;;21001790;28;20093;-60
2022/11/21 02:11:12;;;;;;;4.93;1.80;;;13.60;81.70;;;;;;21001534;28;20094;-59
2022/11/21 02:21:31;;;;;;;1.70;0.97;;;13.70;81.30;;;;;;20662852;28;20046;-57
2022/11/21 02:31:32;;;;;;;2.53;1.30;;;13.60;81.50;;;;;;20662689;28;20046;-60
2022/11/21 02:41:36;;;;;;;3.42;1.40;;;13.70;81.30;;;;;;20662013;28;20566;-59
2022/11/21 02:51:37;;;;;;;2.93;1.43;;;13.60;81.90;;;;;;20719219;28;20089;-58
2022/11/21 03:01:39;;;;;;;3.15;0.95;;;13.60;81.80;;;;;;20913411;28;20134;-60
2022/11/21 03:11:47;;;;;;;3.75;2.00;;;13.60;82.00;;;;;;20913639;28;20078;-59
2022/11/21 03:21:50;;;;;;;2.10;1.48;;;13.60;82.20;;;;;;20913290;28;20061;-59
2022/11/21 03:32:00;;;;;;;2.42;1.42;;;13.50;82.90;;;;;;20910887;28;20486;-60
2022/11/21 03:42:11;;;;;;;1.85;1.23;;;13.40;82.90;;;;;;20912466;28;20053;-59
2022/11/21 03:52:19;;;;;;;2.03;1.30;;;13.50;82.80;;;;;;20911913;28;20048;-59
2022/11/21 04:02:22;;;;;;;2.27;1.90;;;13.50;82.40;;;;;;20912648;28;20081;-60
2022/11/21 04:12:28;;;;;;;1.63;0.93;;;13.60;82.00;;;;;;20911394;28;20160;-59
2022/11/21 04:22:34;;;;;;;3.97;1.17;;;13.70;81.30;;;;;;20911842;28;20100;-60
2022/11/21 04:32:37;;;;;;;1.70;0.98;;;13.60;81.40;;;;;;20986359;28;20500;-60
2022/11/21 04:42:43;;;;;;;4.15;0.98;;;13.70;80.70;;;;;;21004807;28;20144;-60
2022/11/21 04:52:56;;;;;;;1.73;0.60;;;13.70;80.60;;;;;;21007430;28;20087;-60
2022/11/21 05:03:05;;;;;;;1.63;0.70;;;13.70;80.20;;;;;;21006429;28;20055;-59
2022/11/21 05:13:20;;;;;;;1.23;0.82;;;13.70;80.10;;;;;;21006153;28;20052;-58
2022/11/21 05:23:22;;;;;;;1.20;0.70;;;13.60;80.00;;;;;;21005099;28;20063;-60
2022/11/21 05:33:24;;;;;;;1.58;0.70;;;13.70;80.10;;;;;;21004025;28;20053;-61
2022/11/21 05:53:46;;;;;;;1.17;0.60;;;13.60;80.40;;;;;;21003859;28;20140;-60
2022/11/21 06:03:48;;;;;;;0.90;0.65;;;13.60;80.60;;;;;;21001801;28;20040;-61
2022/11/21 06:13:50;;;;;;;1.95;0.90;;;13.70;80.20;;;;;;21001162;28;20083;-60
2022/11/21 06:23:54;;;;;;;1.00;0.60;;;13.80;80.30;;;;;;21000462;28;20445;-60
2022/11/21 06:33:57;;;;;;;2.55;0.75;;;13.80;80.10;;;;;;20998806;28;20049;-59
2022/11/21 06:44:02;;;;;;;2.55;1.00;;;13.70;80.90;;;;;;20999202;28;20071;-60
2022/11/21 06:54:03;;;;;;;1.13;0.68;;;13.70;81.10;;;;;;20998156;28;20060;-60
2022/11/21 07:04:05;;;;;;;1.50;0.80;;;13.70;81.20;;;;;;20997193;28;20134;-60
2022/11/21 07:14:07;;;;;;;1.20;0.60;;;13.70;81.20;;;;;;20996754;28;20052;-60
2022/11/21 07:24:08;;;;;;;1.85;0.80;;;13.70;80.90;;;;;;20997022;28;20053;-59
2022/11/21 07:34:10;;;;;;;1.10;0.68;;;13.70;81.40;;;;;;20995492;28;20451;-59
2022/11/21 07:44:12;;;;;;;2.40;0.90;;;13.70;81.20;;;;;;20995253;28;20451;-59
2022/11/21 07:54:13;;;;;;;1.95;1.05;;;13.80;81.30;;;;;;20995313;28;20416;-59
2022/11/21 08:04:15;;;;;;;2.50;0.90;;;13.80;81.10;;;;;;20994157;28;20074;-59
2022/11/21 08:14:16;;;;;;;1.73;0.85;;;13.80;80.90;;;;;;21000494;28;20389;-59
2022/11/21 08:24:18;;;;;;;1.70;0.90;;;13.90;80.60;;;;;;21010242;28;20055;-59
2022/11/21 08:34:19;;;;;;;2.75;0.98;;;13.90;80.90;;;;;;21008195;28;20147;-60
2022/11/21 08:44:21;;;;;;;4.18;2.08;;;14.00;80.80;;;;;;21008242;28;20041;-58
2022/11/21 08:54:23;;;;;;;1.45;0.80;;;14.00;80.90;;;;;;21007744;28;20060;-60
2022/11/21 09:04:25;;;;;;;9.70;1.48;;;14.00;80.90;;;;;;21007694;28;20123;-60
2022/11/21 09:24:46;;;;;;;2.88;1.08;;;14.10;81.00;;;;;;21004386;28;20084;-60
2022/11/21 09:34:49;;;;;;;5.25;1.58;;;14.20;80.90;;;;;;21003938;28;20044;-59
2022/11/21 09:45:17;;;;;;;3.95;1.00;;;14.30;80.10;;;;;;21004093;28;20048;-59
2022/11/21 09:55:33;;;;;;;3.47;0.80;;;14.50;79.60;;;;;;21002192;28;20052;-59
2022/11/21 10:05:56;;;;;;;1.48;0.70;;;14.40;80.20;;;;;;21001517;28;20411;-59
2022/11/21 10:16:20;;;;;;;2.25;1.00;;;14.40;80.50;;;;;;21001731;28;20053;-56
2022/11/21 10:26:42;;;;;;;3.15;0.77;;;14.40;80.00;;;;;;20999671;28;20114;-58
2022/11/21 10:36:48;;;;;;;3.20;0.85;;;14.70;79.20;;;;;;20984591;28;20512;-60
2022/11/21 10:46:57;;;;;;;2.22;1.00;;;14.70;78.50;;;;;;20999568;28;20488;-59
2022/11/21 10:57:05;;;;;;;3.22;1.10;;;14.70;78.80;;;;;;20997973;28;20071;-58
2022/11/21 11:07:27;;;;;;;2.40;0.80;;;14.70;78.40;;;;;;20997478;28;20045;-59
2022/11/21 11:17:31;;;;;;;2.47;0.77;;;14.70;78.30;;;;;;20995446;28;20053;-58
2022/11/21 11:27:36;;;;;;;2.03;0.75;;;14.80;78.70;;;;;;20996232;28;20049;-60
2022/11/21 11:37:41;;;;;;;;;;;14.70;79.60;;;;;;20996202;28;20052;-60
2022/11/21 11:47:56;;;;;;;1.37;0.80;;;14.50;81.50;;;;;;21002156;28;20296;-60
2022/11/21 11:58:01;;;;;;;1.90;0.95;;;14.50;82.20;;;;;;21012154;28;20064;-59
2022/11/21 12:08:14;;;;;;;5.82;1.42;;;14.60;82.00;;;;;;21010390;28;20056;-58
2022/11/21 12:18:16;;;;;;;5.03;1.00;;;14.50;83.00;;;;;;20993109;28;20048;-61
2022/11/21 12:28:40;;;;;;;4.70;1.52;;;14.40;83.10;;;;;;21008966;28;20504;-58
2022/11/21 12:38:47;;;;;;;3.75;1.38;;;14.40;83.50;;;;;;20997826;28;20053;-60
2022/11/21 12:59:32;;;;;;;17.40;13.45;;;14.40;83.60;;;;;;21005919;28;20105;-59
2022/11/21 13:09:42;;;;;;;2.30;0.90;;;14.30;83.40;;;;;;21005920;28;20049;-60
2022/11/21 13:20:05;;;;;;;5.25;1.92;;;14.40;83.70;;;;;;21005659;28;20411;-58
2022/11/21 13:30:10;;;;;;;4.45;1.88;;;14.50;81.60;;;;;;21003775;28;20059;-60
2022/11/21 13:40:31;;;;;;;5.07;1.83;;;14.40;79.70;;;;;;21003173;28;20056;-59
2022/11/21 13:50:41;;;;;;;3.03;1.95;;;14.30;80.80;;;;;;21002592;28;20056;-65
2022/11/21 14:01:21;;;;;;;5.07;2.42;;;14.50;79.10;;;;;;21001216;28;20048;-61
2022/11/21 14:11:40;;;;;;;4.60;2.30;;;14.90;80.50;;;;;;21001680;28;20454;-63
2022/11/21 14:21:45;;;;;;;3.72;1.80;;;14.80;82.20;;;;;;21001141;28;20476;-60
2022/11/21 14:31:48;;;;;;;3.50;1.00;;;14.70;82.90;;;;;;20998786;28;20488;-63
2022/11/21 14:41:55;;;;;;;3.92;1.50;;;14.90;82.80;;;;;;20999753;28;20059;-62
2022/11/21 14:52:11;;;;;;;3.80;1.50;;;14.90;82.60;;;;;;20997990;28;20473;-59
2022/11/21 15:02:16;;;;;;;2.92;1.10;;;14.80;82.60;;;;;;20979230;28;20060;-59
2022/11/21 15:12:38;;;;;;;6.47;3.97;;;14.80;82.20;;;;;;20995868;28;20084;-61
2022/11/21 15:22:41;;;;;;;8.18;2.53;;;14.80;82.00;;;;;;20978321;28;20052;-59
2022/11/21 15:33:12;;;;;;;3.92;2.55;;;14.90;70.40;;;;;;20996499;28;20081;-61
2022/11/21 15:43:52;;;;;;;12.68;9.15;;;15.00;65.70;;;;;;20996632;28;20477;-60
2022/11/21 15:53:53;;;;;;;5.95;1.60;;;15.10;62.60;;;;;;20993107;28;20052;-59
2022/11/21 16:03:57;;;;;;;3.85;2.13;;;14.70;61.10;;;;;;21052945;28;20055;-57
2022/11/21 16:14:03;;;;;;;7.55;2.30;;;15.40;62.30;;;;;;20977283;28;20049;-69
2022/11/21 16:24:05;;;;;;;5.57;1.77;;;15.00;55.80;;;;;;20932595;28;20087;-62
2022/11/21 16:34:07;;;;;;;10.70;5.50;;;14.30;53.00;;;;;;20998920;28;20056;-62
2022/11/21 16:44:13;;;;;;;7.95;3.85;;;14.00;54.10;;;;;;20928652;28;20559;-61
2022/11/21 16:54:15;;;;;;;10.75;4.97;;;13.90;53.60;;;;;;20980220;28;20052;-57
2022/11/21 17:04:17;;;;;;;6.40;2.72;;;13.80;53.40;;;;;;20945133;28;20474;-62
2022/11/21 17:14:18;;;;;;;3.63;1.52;;;13.90;53.20;;;;;;21028566;28;20059;-57
2022/11/21 17:24:20;;;;;;;5.95;1.70;;;13.70;54.60;;;;;;21044744;28;20087;-60
2022/11/21 17:34:22;;;;;;;7.35;1.63;;;13.30;54.80;;;;;;21003129;28;20048;-57
2022/11/21 17:44:24;;;;;;;6.00;1.88;;;13.70;54.80;;;;;;21003888;28;20055;-57
2022/11/21 17:54:26;;;;;;;7.32;1.73;;;13.40;56.30;;;;;;21003575;28;20480;-62
2022/11/21 18:04:28;;;;;;;5.80;2.00;;;13.30;56.90;;;;;;21003326;28;20049;-66
2022/11/21 18:14:29;;;;;;;7.07;3.33;;;13.00;57.70;;;;;;21002102;28;20044;-65
2022/11/21 18:24:31;;;;;;;3.70;1.70;;;12.90;58.60;;;;;;21001850;28;20059;-63
2022/11/21 18:34:33;;;;;;;6.88;3.92;;;13.00;59.20;;;;;;20998367;28;20063;-60
2022/11/21 18:44:34;;;;;;;5.72;2.33;;;13.00;58.40;;;;;;20999083;28;20124;-58
2022/11/21 18:54:36;;;;;;;3.30;1.35;;;12.80;57.00;;;;;;20996264;28;20051;-57
2022/11/21 19:04:37;;;;;;;3.33;0.90;;;12.80;56.10;;;;;;20997322;28;20044;-60
2022/11/21 19:14:38;;;;;;;3.25;1.02;;;12.50;55.20;;;;;;20996823;28;20059;-60
2022/11/21 19:24:40;;;;;;;1.55;0.90;;;12.40;53.80;;;;;;20996461;28;20041;-58
2022/11/21 19:34:41;;;;;;;1.98;0.75;;;11.20;62.20;;;;;;20995009;28;20056;-60
2022/11/21 19:44:42;;;;;;;3.72;1.48;;;10.80;61.00;;;;;;20995246;28;20052;-60
2022/11/21 19:54:44;;;;;;;4.65;1.63;;;10.60;59.10;;;;;;20996767;28;20053;-59
2022/11/21 20:04:45;;;;;;;4.53;1.10;;;10.60;58.30;;;;;;20995211;28;20071;-59
2022/11/21 20:14:47;;;;;;;5.43;2.15;;;10.60;57.60;;;;;;21009289;28;20203;-62
2022/11/21 20:24:48;;;;;;;4.40;2.40;;;10.50;58.60;;;;;;21009690;28;20110;-62
2022/11/21 20:34:49;;;;;;;3.45;1.65;;;10.60;58.40;;;;;;21008189;28;20060;-59
2022/11/21 20:44:51;;;;;;;5.68;1.95;;;10.60;59.20;;;;;;21008169;28;20049;-63
2022/11/21 20:54:53;;;;;;;2.97;1.42;;;10.60;59.50;;;;;;21008222;28;20052;-64
2022/11/21 21:04:54;;;;;;;4.95;1.20;;;10.50;59.70;;;;;;21007565;28;20063;-61
2022/11/21 21:14:56;;;;;;;2.60;1.50;;;10.50;59.80;;;;;;21026205;28;20049;-58
2022/11/21 21:24:57;;;;;;;4.18;1.00;;;10.50;59.10;;;;;;21013618;28;20106;-56
2022/11/21 21:34:58;;;;;;;6.70;1.52;;;10.50;57.70;;;;;;21004645;28;20076;-59
2022/11/21 21:45:01;;;;;;;4.47;1.02;;;10.50;57.70;;;;;;21004838;28;20045;-65
2022/11/21 21:55:02;;;;;;;4.43;1.95;;;10.50;57.60;;;;;;21003134;28;20059;-62
2022/11/21 22:05:04;;;;;;;3.08;1.17;;;10.50;56.90;;;;;;21002905;28;20436;-59
2022/11/21 22:15:06;;;;;;;3.80;1.35;;;10.40;55.30;;;;;;21001947;28;20408;-59
2022/11/21 22:25:08;;;;;;;3.67;1.20;;;10.40;56.70;;;;;;21000228;28;20048;-59
2022/11/21 22:35:09;;;;;;;4.68;1.45;;;10.30;58.90;;;;;;20999399;28;20048;-60
2022/11/21 22:45:10;;;;;;;3.88;1.60;;;10.20;58.70;;;;;;21000022;28;20405;-62
2022/11/21 22:55:11;;;;;;;3.72;1.30;;;10.00;58.70;;;;;;20999252;28;20072;-59
2022/11/21 23:05:13;;;;;;;5.50;1.63;;;9.80;57.70;;;;;;20998400;28;20059;-65
2022/11/21 23:15:14;;;;;;;3.60;1.00;;;9.80;57.00;;;;;;20997707;28;20460;-59
2022/11/21 23:25:15;;;;;;;4.85;1.48;;;9.90;54.60;;;;;;20996050;28;20052;-61
2022/11/21 23:35:17;;;;;;;5.07;1.40;;;9.70;54.40;;;;;;21002245;28;20052;-60
2022/11/21 23:45:18;;;;;;;5.13;1.30;;;9.70;53.00;;;;;;20995456;28;20040;-61
2022/11/21 23:55:20;;;;;;;5.28;1.00;;;9.50;54.00;;;;;;20995706;28;20044;-66
